Time,TemperatureF,DewpointF,PressureIn,WindDirection,WindDirectionDegrees,WindSpeedMPH,WindSpeedGustMPH,Humidity,HourlyPrecipIn,Conditions,Clouds,dailyrainin,SoftwareType,DateUTC
2016-07-24 00:00:00,67.5,64.8,30.09,NW,322,0.0,0.0,91,0.00,RA,SKC,0.00,WeatherDisplay:10.37,2016-07-23 22:00:00,
2016-07-24 00:05:00,67.7,65.0,30.09,North,356,0.0,0.0,91,0.00,RA,SKC,0.00,WeatherDisplay:10.37,2016-07-23 22:05:00,
2016-07-24 00:10:00,67.8,65.1,30.09,NNE,18,0.0,0.0,91,0.00,CLR,SKC,0.00,WeatherDisplay:10.37,2016-07-23 22:10:00,
2016-07-24 00:15:00,67.7,64.7,30.09,WNW,301,0.0,2.0,90,0.00,CLR,SKC,0.00,WeatherDisplay:10.37,2016-07-23 22:15:00,
2016-07-24 00:20:00,67.7,64.7,30.09,WNW,285,0.0,1.0,90,0.00,CLR,SKC,0.00,WeatherDisplay:10.37,2016-07-23 22:20:00,
2016-07-24 00:25:00,67.8,64.8,30.09,West,272,0.0,2.0,90,0.00,CLR,SKC,0.00,WeatherDisplay:10.37,2016-07-23 22:25:00,
2016-07-24 00:30:00,67.6,64.9,30.09,SW,224,1.1,1.1,91,0.00,CLR,SKC,0.00,WeatherDisplay:10.37,2016-07-23 22:30:00,
2016-07-24 00:35:00,67.6,64.9,30.09,SW,215,0.0,2.0,91,0.00,CLR,SKC,0.00,WeatherDisplay:10.37,2016-07-23 22:35:00,
2016-07-24 00:40:00,67.3,64.6,30.09,SSW,208,2.0,4.0,91,0.00,CLR,SKC,0.00,WeatherDisplay:10.37,2016-07-23 22:40:00,
2016-07-24 00:45:00,67.1,64.4,30.09,SSW,198,2.0,4.0,91,0.00,CLR,SKC,0.00,WeatherDisplay:10.37,2016-07-23 22:45:00,
2016-07-24 00:50:00,66.9,64.5,30.10,SSW,195,3.5,3.5,92,0.00,CLR,SKC,0.00,WeatherDisplay:10.37,2016-07-23 22:50:00,
2016-07-24 00:55:00,66.8,64.4,30.09,South,173,2.3,2.3,92,0.00,CLR,SKC,0.00,WeatherDisplay:10.37,2016-07-23 22:55:00,
2016-07-24 01:00:00,66.7,64.3,30.10,SSE,160,3.5,3.5,92,0.00,CLR,SKC,0.00,WeatherDisplay:10.37,2016-07-23 23:00:00,
2016-07-24 01:05:00,66.6,63.9,30.10,South,186,3.5,3.5,91,0.00,CLR,SKC,0.00,WeatherDisplay:10.37,2016-07-23 23:05:00,
2016-07-24 01:10:00,66.6,64.2,30.10,SSW,211,2.3,2.3,92,0.00,CLR,SKC,0.00,WeatherDisplay:10.37,2016-07-23 23:10:00,
2016-07-24 01:15:00,66.6,64.2,30.10,SSW,200,3.5,3.5,92,0.00,CLR,SKC,0.00,WeatherDisplay:10.37,2016-07-23 23:15:00,
2016-07-24 01:20:00,66.5,64.1,30.10,SW,214,3.5,3.5,92,0.00,CLR,SKC,0.00,WeatherDisplay:10.37,2016-07-23 23:20:00,
2016-07-24 01:25:00,66.4,64.3,30.09,SSW,194,3.5,3.5,93,0.00,CLR,SKC,0.00,WeatherDisplay:10.37,2016-07-23 23:25:00,
2016-07-24 01:30:00,66.4,64.3,30.09,South,177,3.5,3.5,93,0.00,CLR,SKC,0.00,WeatherDisplay:10.37,2016-07-23 23:30:00,
2016-07-24 01:35:00,66.3,63.9,30.09,SSE,162,1.1,1.1,92,0.00,CLR,SKC,0.00,WeatherDisplay:10.37,2016-07-23 23:35:00,
2016-07-24 01:40:00,66.4,64.3,30.09,SSE,162,0.0,0.0,93,0.00,CLR,SKC,0.00,WeatherDisplay:10.37,2016-07-23 23:40:00,
2016-07-24 01:45:00,66.4,64.3,30.09,SSE,162,0.0,0.0,93,0.00,CLR,SKC,0.00,WeatherDisplay:10.37,2016-07-23 23:45:00,
2016-07-24 01:50:00,66.6,64.5,30.09,West,266,1.1,1.1,93,0.00,CLR,SKC,0.00,WeatherDisplay:10.37,2016-07-23 23:50:00,
2016-07-24 01:55:00,66.8,64.4,30.09,West,271,0.0,0.0,92,0.00,CLR,SKC,0.00,WeatherDisplay:10.37,2016-07-23 23:55:00,
2016-07-24 02:00:00,66.8,64.4,30.09,West,271,1.1,0.0,92,0.00,CLR,SKC,0.00,WeatherDisplay:10.37,2016-07-24 00:00:00,
2016-07-24 02:05:00,67.0,64.6,30.09,West,271,0.0,0.0,92,0.00,CLR,SKC,0.00,WeatherDisplay:10.37,2016-07-24 00:05:00,
2016-07-24 02:10:00,67.2,64.8,30.09,NE,43,1.1,1.1,92,0.00,CLR,SKC,0.00,WeatherDisplay:10.37,2016-07-24 00:10:00,
2016-07-24 02:15:00,67.2,64.5,30.09,ESE,122,2.3,2.3,91,0.00,CLR,SKC,0.00,WeatherDisplay:10.37,2016-07-24 00:15:00,
2016-07-24 02:20:00,67.3,64.6,30.09,NE,34,2.0,2.0,91,0.00,CLR,SKC,0.00,WeatherDisplay:10.37,2016-07-24 00:20:00,
2016-07-24 02:25:00,67.3,64.6,30.09,ENE,69,1.1,1.1,91,0.00,CLR,SKC,0.00,WeatherDisplay:10.37,2016-07-24 00:25:00,
2016-07-24 02:30:00,67.2,64.5,30.09,NW,319,1.1,1.1,91,0.00,CLR,SKC,0.00,WeatherDisplay:10.37,2016-07-24 00:30:00,
2016-07-24 02:35:00,67.2,64.5,30.09,WNW,295,3.5,3.5,91,0.00,CLR,SKC,0.00,WeatherDisplay:10.37,2016-07-24 00:35:00,
2016-07-24 02:40:00,67.0,64.3,30.08,NNW,329,3.5,3.5,91,0.00,CLR,SKC,0.00,WeatherDisplay:10.37,2016-07-24 00:40:00,
2016-07-24 02:45:00,67.0,64.3,30.08,SE,128,1.1,0.0,91,0.00,CLR,SKC,0.00,WeatherDisplay:10.37,2016-07-24 00:45:00,
2016-07-24 02:55:00,66.8,64.1,30.08,WNW,283,1.1,1.1,91,0.00,CLR,SKC,0.00,WeatherDisplay:10.37,2016-07-24 00:55:00,
2016-07-24 03:00:00,66.8,64.4,30.08,WSW,246,1.1,1.1,92,0.00,CLR,SKC,0.00,WeatherDisplay:10.37,2016-07-24 01:00:00,
2016-07-24 03:05:00,66.7,64.3,30.08,WSW,252,1.1,1.1,92,0.00,CLR,SKC,0.00,WeatherDisplay:10.37,2016-07-24 01:05:00,
2016-07-24 03:10:00,66.5,64.1,30.08,SSW,196,3.5,3.5,92,0.00,CLR,SKC,0.00,WeatherDisplay:10.37,2016-07-24 01:10:00,
2016-07-24 03:15:00,66.3,63.9,30.08,SW,219,3.5,3.5,92,0.00,CLR,SKC,0.00,WeatherDisplay:10.37,2016-07-24 01:15:00,
2016-07-24 03:20:00,66.0,63.9,30.08,SSW,198,2.3,2.3,93,0.00,CLR,SKC,0.00,WeatherDisplay:10.37,2016-07-24 01:20:00,
2016-07-24 03:25:00,65.9,63.8,30.08,SSW,198,1.1,1.1,93,0.00,CLR,SKC,0.00,WeatherDisplay:10.37,2016-07-24 01:25:00,
2016-07-24 03:30:00,65.9,63.8,30.08,SSW,208,1.0,1.0,93,0.00,CLR,SKC,0.00,WeatherDisplay:10.37,2016-07-24 01:30:00,
2016-07-24 03:35:00,65.9,63.8,30.08,SSW,211,3.5,3.5,93,0.00,CLR,SKC,0.00,WeatherDisplay:10.37,2016-07-24 01:35:00,
2016-07-24 03:40:00,65.9,63.8,30.08,South,179,3.5,3.5,93,0.00,CLR,SKC,0.00,WeatherDisplay:10.37,2016-07-24 01:40:00,
2016-07-24 03:45:00,65.9,63.8,30.08,South,177,1.1,1.1,93,0.00,CLR,SKC,0.00,WeatherDisplay:10.37,2016-07-24 01:45:00,
2016-07-24 03:50:00,65.9,63.8,30.08,SSE,162,1.1,1.1,93,0.00,CLR,SKC,0.00,WeatherDisplay:10.37,2016-07-24 01:50:00,
2016-07-24 03:55:00,66.0,63.9,30.08,South,180,1.1,0.0,93,0.00,CLR,SKC,0.00,WeatherDisplay:10.37,2016-07-24 01:55:00,
2016-07-24 04:00:00,66.0,63.9,30.08,WSW,246,2.3,2.3,93,0.00,CLR,SKC,0.00,WeatherDisplay:10.37,2016-07-24 02:00:00,
2016-07-24 04:05:00,66.2,64.1,30.08,West,266,4.0,4.0,93,0.00,CLR,SKC,0.00,WeatherDisplay:10.37,2016-07-24 02:05:00,
2016-07-24 04:10:00,66.3,63.9,30.08,NNE,19,4.0,4.0,92,0.00,CLR,SKC,0.00,WeatherDisplay:10.37,2016-07-24 02:10:00,
2016-07-24 04:15:00,66.3,63.6,30.08,North,360,3.5,3.5,91,0.00,CLR,SKC,0.00,WeatherDisplay:10.37,2016-07-24 02:15:00,
2016-07-24 04:20:00,66.4,63.7,30.08,North,349,2.3,2.3,91,0.00,CLR,SKC,0.00,WeatherDisplay:10.37,2016-07-24 02:20:00,
2016-07-24 04:25:00,66.5,63.8,30.08,North,356,0.0,0.0,91,0.00,CLR,SKC,0.00,WeatherDisplay:10.37,2016-07-24 02:25:00,
2016-07-24 04:30:00,66.5,63.8,30.07,NW,315,3.5,3.5,91,0.00,CLR,SKC,0.00,WeatherDisplay:10.37,2016-07-24 02:30:00,
2016-07-24 04:35:00,66.4,63.7,30.08,NNE,13,0.0,0.0,91,0.00,CLR,SKC,0.00,WeatherDisplay:10.37,2016-07-24 02:35:00,
2016-07-24 04:40:00,66.5,63.8,30.07,East,92,0.0,0.0,91,0.00,CLR,SKC,0.00,WeatherDisplay:10.37,2016-07-24 02:40:00,
2016-07-24 04:45:00,66.5,63.5,30.07,SE,124,1.1,0.0,90,0.00,CLR,SKC,0.00,WeatherDisplay:10.37,2016-07-24 02:45:00,
2016-07-24 04:50:00,66.5,63.8,30.07,North,4,1.1,1.1,91,0.00,CLR,SKC,0.00,WeatherDisplay:10.37,2016-07-24 02:50:00,
2016-07-24 04:55:00,66.5,63.8,30.07,ENE,73,2.3,0.0,91,0.00,CLR,SKC,0.00,WeatherDisplay:10.37,2016-07-24 02:55:00,
2016-07-24 05:00:00,66.5,63.8,30.07,NE,47,2.3,2.3,91,0.00,CLR,SKC,0.00,WeatherDisplay:10.37,2016-07-24 03:00:00,
2016-07-24 05:05:00,66.5,63.5,30.07,North,5,1.1,1.1,90,0.00,CLR,SKC,0.00,WeatherDisplay:10.37,2016-07-24 03:05:00,
2016-07-24 05:10:00,66.5,63.5,30.07,NNW,342,3.5,3.5,90,0.00,CLR,SKC,0.00,WeatherDisplay:10.37,2016-07-24 03:10:00,
2016-07-24 05:15:00,66.5,63.8,30.07,NE,43,2.3,2.3,91,0.00,CLR,SKC,0.00,WeatherDisplay:10.37,2016-07-24 03:15:00,
2016-07-24 05:20:00,66.5,63.8,30.07,NE,39,3.5,3.5,91,0.00,CLR,SKC,0.00,WeatherDisplay:10.37,2016-07-24 03:20:00,
2016-07-24 05:25:00,66.5,63.8,30.07,NE,56,2.3,0.0,91,0.00,CLR,SKC,0.00,WeatherDisplay:10.37,2016-07-24 03:25:00,
2016-07-24 05:30:00,66.4,63.7,30.07,NE,48,2.3,2.3,91,0.00,CLR,SKC,0.00,WeatherDisplay:10.37,2016-07-24 03:30:00,
2016-07-24 05:35:00,66.4,63.7,30.07,NNE,17,0.0,0.0,91,0.00,CLR,SKC,0.00,WeatherDisplay:10.37,2016-07-24 03:35:00,
2016-07-24 05:40:00,66.5,63.8,30.07,NW,326,1.1,0.0,91,0.00,CLR,SKC,0.00,WeatherDisplay:10.37,2016-07-24 03:40:00,
2016-07-24 05:45:00,66.5,63.5,30.07,NNE,32,2.3,2.3,90,0.00,CLR,SKC,0.00,WeatherDisplay:10.37,2016-07-24 03:45:00,
2016-07-24 05:50:00,66.4,63.4,30.07,NNE,32,0.0,0.0,90,0.00,CLR,SKC,0.00,WeatherDisplay:10.37,2016-07-24 03:50:00,
2016-07-24 05:55:00,66.5,63.5,30.07,West,277,0.0,0.0,90,0.00,CLR,SKC,0.00,WeatherDisplay:10.37,2016-07-24 03:55:00,
2016-07-24 06:00:00,66.5,63.5,30.07,NW,318,2.3,2.3,90,0.00,CLR,SKC,0.00,WeatherDisplay:10.37,2016-07-24 04:00:00,
2016-07-24 06:05:00,66.4,63.4,30.08,NNW,327,2.3,2.3,90,0.00,CLR,SKC,0.00,WeatherDisplay:10.37,2016-07-24 04:05:00,
2016-07-24 06:10:00,66.4,63.4,30.08,NW,324,1.1,1.1,90,0.00,CLR,SKC,0.00,WeatherDisplay:10.37,2016-07-24 04:10:00,
2016-07-24 06:15:00,66.3,63.3,30.08,NNW,329,2.3,2.3,90,0.00,CLR,SKC,0.00,WeatherDisplay:10.37,2016-07-24 04:15:00,
2016-07-24 06:20:00,66.3,63.3,30.08,NNW,334,2.3,2.3,90,0.00,CLR,SKC,0.00,WeatherDisplay:10.37,2016-07-24 04:20:00,
2016-07-24 06:26:00,66.1,63.1,30.08,NNW,328,3.5,3.5,90,0.00,CLR,SKC,0.00,WeatherDisplay:10.37,2016-07-24 04:26:00,
2016-07-24 06:31:00,66.1,63.4,30.08,NNW,338,3.5,3.5,91,0.00,CLR,SKC,0.00,WeatherDisplay:10.37,2016-07-24 04:31:00,
2016-07-24 06:36:00,66.1,63.4,30.08,ENE,60,2.3,2.3,91,0.00,CLR,SKC,0.00,WeatherDisplay:10.37,2016-07-24 04:36:00,
2016-07-24 06:41:00,66.2,63.2,30.08,NE,38,3.5,3.5,90,0.00,CLR,SKC,0.00,WeatherDisplay:10.37,2016-07-24 04:41:00,
2016-07-24 06:46:00,66.1,63.1,30.08,North,8,1.1,1.1,90,0.00,CLR,SKC,0.00,WeatherDisplay:10.37,2016-07-24 04:46:00,
2016-07-24 06:51:00,66.1,63.1,30.08,NNE,33,3.5,3.5,90,0.00,CLR,SKC,0.00,WeatherDisplay:10.37,2016-07-24 04:51:00,
2016-07-24 06:56:00,66.1,63.1,30.08,NE,53,3.5,3.5,90,0.00,CLR,SKC,0.00,WeatherDisplay:10.37,2016-07-24 04:56:00,
2016-07-24 07:01:00,66.2,63.2,30.08,NNE,30,1.1,1.1,90,0.00,CLR,SKC,0.00,WeatherDisplay:10.37,2016-07-24 05:01:00,
2016-07-24 07:06:00,66.2,63.2,30.08,NE,43,1.1,1.1,90,0.00,CLR,SKC,0.00,WeatherDisplay:10.37,2016-07-24 05:06:00,
2016-07-24 07:11:00,66.2,63.2,30.08,NNE,16,0.0,0.0,90,0.00,CLR,SKC,0.00,WeatherDisplay:10.37,2016-07-24 05:11:00,
2016-07-24 07:16:00,66.3,63.3,30.08,NNW,345,1.1,0.0,90,0.00,CLR,SKC,0.00,WeatherDisplay:10.37,2016-07-24 05:16:00,
2016-07-24 07:21:00,66.4,63.4,30.08,NNW,340,2.3,2.3,90,0.00,CLR,SKC,0.00,WeatherDisplay:10.37,2016-07-24 05:21:00,
2016-07-24 07:26:00,66.2,63.2,30.08,NNW,345,3.5,3.5,90,0.00,CLR,SKC,0.00,WeatherDisplay:10.37,2016-07-24 05:26:00,
2016-07-24 07:31:00,66.1,63.4,30.08,WNW,294,3.5,3.5,91,0.00,CLR,SKC,0.00,WeatherDisplay:10.37,2016-07-24 05:31:00,
2016-07-24 07:36:00,65.9,63.2,30.08,NNW,330,2.3,2.3,91,0.00,CLR,SKC,0.00,WeatherDisplay:10.37,2016-07-24 05:36:00,
2016-07-24 07:41:00,65.8,63.1,30.08,NW,322,3.0,3.0,91,0.00,CLR,SKC,0.00,WeatherDisplay:10.37,2016-07-24 05:41:00,
2016-07-24 07:46:00,65.7,63.0,30.08,North,351,3.5,3.5,91,0.00,CLR,SKC,0.00,WeatherDisplay:10.37,2016-07-24 05:46:00,
2016-07-24 07:51:00,65.7,63.0,30.08,NW,310,3.5,3.5,91,0.00,CLR,SKC,0.00,WeatherDisplay:10.37,2016-07-24 05:51:00,
2016-07-24 07:56:00,65.5,62.5,30.08,NW,314,3.5,3.5,90,0.00,CLR,SKC,0.00,WeatherDisplay:10.37,2016-07-24 05:56:00,
2016-07-24 08:01:00,65.5,62.8,30.08,NW,310,3.5,3.5,91,0.00,CLR,SKC,0.00,WeatherDisplay:10.37,2016-07-24 06:01:00,
2016-07-24 08:06:00,65.6,62.9,30.08,NW,319,4.0,4.0,91,0.00,CLR,SKC,0.00,WeatherDisplay:10.37,2016-07-24 06:06:00,
2016-07-24 08:11:00,65.7,63.0,30.08,NNW,334,3.5,3.5,91,0.00,CLR,SKC,0.00,WeatherDisplay:10.37,2016-07-24 06:11:00,
2016-07-24 08:16:00,65.9,63.2,30.08,NNW,330,3.0,3.0,91,0.00,CLR,SKC,0.00,WeatherDisplay:10.37,2016-07-24 06:16:00,
2016-07-24 08:21:00,66.0,63.0,30.08,NW,323,3.5,3.5,90,0.00,CLR,SKC,0.00,WeatherDisplay:10.37,2016-07-24 06:21:00,
2016-07-24 08:26:00,66.0,63.0,30.08,NW,319,3.5,3.5,90,0.00,CLR,SKC,0.00,WeatherDisplay:10.37,2016-07-24 06:26:00,
2016-07-24 08:31:00,65.9,62.9,30.08,NW,314,4.0,4.0,90,0.00,CLR,SKC,0.00,WeatherDisplay:10.37,2016-07-24 06:31:00,
2016-07-24 08:36:00,66.1,62.8,30.08,NNW,345,5.8,5.8,89,0.00,CLR,SKC,0.00,WeatherDisplay:10.37,2016-07-24 06:36:00,
2016-07-24 08:41:00,66.1,63.1,30.08,NNW,329,6.0,6.0,90,0.00,CLR,SKC,0.00,WeatherDisplay:10.37,2016-07-24 06:41:00,
2016-07-24 08:46:00,66.0,63.0,30.08,NW,326,5.8,5.8,90,0.00,CLR,SKC,0.00,WeatherDisplay:10.37,2016-07-24 06:46:00,
2016-07-24 08:51:00,66.1,63.1,30.08,North,5,4.6,4.6,90,0.00,CLR,SKC,0.00,WeatherDisplay:10.37,2016-07-24 06:51:00,
2016-07-24 08:56:00,66.2,63.2,30.08,NW,308,4.6,4.6,90,0.00,CLR,SKC,0.00,WeatherDisplay:10.37,2016-07-24 06:56:00,
2016-07-24 09:01:00,66.5,63.2,30.08,NNW,329,3.5,3.5,89,0.00,CLR,SKC,0.00,WeatherDisplay:10.37,2016-07-24 07:01:00,
2016-07-24 09:06:00,66.6,63.3,30.09,WNW,299,7.0,7.0,89,0.00,CLR,SKC,0.00,WeatherDisplay:10.37,2016-07-24 07:06:00,
2016-07-24 09:11:00,66.7,63.4,30.09,NW,319,3.5,3.5,89,0.00,CLR,SKC,0.00,WeatherDisplay:10.37,2016-07-24 07:11:00,
2016-07-24 09:16:00,66.8,63.1,30.09,NNW,339,6.9,6.9,88,0.00,CLR,SKC,0.00,WeatherDisplay:10.37,2016-07-24 07:16:00,
2016-07-24 09:21:00,67.0,63.3,30.09,North,352,4.6,4.6,88,0.00,CLR,SKC,0.00,WeatherDisplay:10.37,2016-07-24 07:21:00,
2016-07-24 09:26:00,67.0,63.0,30.09,NW,325,6.9,6.9,87,0.00,CLR,SKC,0.00,WeatherDisplay:10.37,2016-07-24 07:26:00,
2016-07-24 09:36:00,67.2,63.2,30.09,NNW,335,3.5,3.5,87,0.00,CLR,SKC,0.00,WeatherDisplay:10.37,2016-07-24 07:36:00,
2016-07-24 09:41:00,67.3,63.0,30.09,NNW,331,5.8,5.8,86,0.00,CLR,SKC,0.00,WeatherDisplay:10.37,2016-07-24 07:41:00,
2016-07-24 09:46:00,67.5,63.2,30.09,NNW,332,5.8,5.8,86,0.00,CLR,SKC,0.00,WeatherDisplay:10.37,2016-07-24 07:46:00,
2016-07-24 09:51:00,67.6,63.3,30.09,NNW,333,4.6,4.6,86,0.00,CLR,SKC,0.00,WeatherDisplay:10.37,2016-07-24 07:51:00,
2016-07-24 09:56:00,67.7,63.0,30.09,NW,318,6.9,6.9,85,0.00,CLR,SKC,0.00,WeatherDisplay:10.37,2016-07-24 07:56:00,
2016-07-24 10:01:00,67.7,63.0,30.09,NW,305,6.9,6.9,85,0.00,CLR,SKC,0.00,WeatherDisplay:10.37,2016-07-24 08:01:00,
2016-07-24 10:06:00,67.8,62.8,30.09,North,8,6.9,6.9,84,0.00,CLR,SKC,0.00,WeatherDisplay:10.37,2016-07-24 08:06:00,
2016-07-24 10:09:00,67.9,62.9,30.09,NW,318,5.8,5.8,84,0.00,CLR,SKC,0.00,WeatherDisplay:10.37,2016-07-24 08:09:00,
2016-07-24 10:14:00,68.0,63.0,30.09,NW,305,6.0,6.0,84,0.00,CLR,SKC,0.00,WeatherDisplay:10.37,2016-07-24 08:14:00,
2016-07-24 10:19:00,68.0,62.6,30.09,NNW,330,7.0,7.0,83,0.00,CLR,SKC,0.00,WeatherDisplay:10.37,2016-07-24 08:19:00,
2016-07-24 10:24:00,68.1,62.7,30.09,WNW,301,5.8,5.8,83,0.00,CLR,SKC,0.00,WeatherDisplay:10.37,2016-07-24 08:24:00,
2016-07-24 10:29:00,68.1,62.4,30.09,NW,316,10.4,10.4,82,0.00,CLR,SKC,0.00,WeatherDisplay:10.37,2016-07-24 08:29:00,
2016-07-24 10:34:00,68.2,62.1,30.09,NW,322,7.0,7.0,81,0.00,CLR,SKC,0.00,WeatherDisplay:10.37,2016-07-24 08:34:00,
2016-07-24 10:39:00,68.4,62.3,30.09,NW,304,8.1,8.1,81,0.00,CLR,SKC,0.00,WeatherDisplay:10.37,2016-07-24 08:39:00,
2016-07-24 10:44:00,68.6,62.9,30.08,WNW,294,5.8,5.8,82,0.00,CLR,SKC,0.00,WeatherDisplay:10.37,2016-07-24 08:44:00,
2016-07-24 10:49:00,69.2,63.1,30.08,NNW,330,5.8,5.8,81,0.00,CLR,SKC,0.00,WeatherDisplay:10.37,2016-07-24 08:49:00,
2016-07-24 10:54:00,69.4,63.3,30.08,NNW,330,10.4,10.4,81,0.00,CLR,SKC,0.00,WeatherDisplay:10.37,2016-07-24 08:54:00,
2016-07-24 10:59:00,69.6,63.5,30.08,NW,316,9.2,9.2,81,0.00,CLR,SKC,0.00,WeatherDisplay:10.37,2016-07-24 08:59:00,
2016-07-24 11:04:00,70.1,63.6,30.08,NW,311,8.0,8.0,80,0.00,CLR,SKC,0.00,WeatherDisplay:10.37,2016-07-24 09:04:00,
2016-07-24 11:09:00,70.2,63.4,30.08,NW,310,8.1,8.1,79,0.00,CLR,SKC,0.00,WeatherDisplay:10.37,2016-07-24 09:09:00,
2016-07-24 11:14:00,70.5,63.7,30.08,NNW,332,9.2,9.2,79,0.00,CLR,SKC,0.00,WeatherDisplay:10.37,2016-07-24 09:14:00,
2016-07-24 11:19:00,71.0,63.8,30.08,NW,305,9.2,9.2,78,0.00,CLR,SKC,0.00,WeatherDisplay:10.37,2016-07-24 09:19:00,
2016-07-24 11:24:00,70.8,63.2,30.08,NW,315,8.0,8.0,77,0.00,CLR,SKC,0.00,WeatherDisplay:10.37,2016-07-24 09:24:00,
2016-07-24 11:29:00,71.0,63.1,30.07,NW,314,9.2,9.2,76,0.00,CLR,SKC,0.00,WeatherDisplay:10.37,2016-07-24 09:29:00,
2016-07-24 11:34:00,71.6,63.6,30.07,NNW,328,10.4,10.4,76,0.00,CLR,SKC,0.00,WeatherDisplay:10.37,2016-07-24 09:34:00,
2016-07-24 11:39:00,72.0,63.3,30.08,WNW,302,13.8,13.8,74,0.00,CLR,SKC,0.00,WeatherDisplay:10.37,2016-07-24 09:39:00,
2016-07-24 11:44:00,72.3,63.2,30.08,NNW,333,12.7,12.7,73,0.00,CLR,SKC,0.00,WeatherDisplay:10.37,2016-07-24 09:44:00,
2016-07-24 11:49:00,71.9,62.8,30.08,NNE,13,11.5,11.5,73,0.00,CLR,SKC,0.00,WeatherDisplay:10.37,2016-07-24 09:49:00,
2016-07-24 11:54:00,71.9,62.4,30.07,NNW,330,11.5,11.5,72,0.00,CLR,SKC,0.00,WeatherDisplay:10.37,2016-07-24 09:54:00,
2016-07-24 11:59:00,72.3,62.4,30.08,NW,314,11.5,11.5,71,0.00,CLR,SKC,0.00,WeatherDisplay:10.37,2016-07-24 09:59:00,
2016-07-24 12:04:00,72.4,62.9,30.07,NW,307,9.2,9.2,72,0.00,CLR,SKC,0.00,WeatherDisplay:10.37,2016-07-24 10:04:00,
2016-07-24 12:09:00,72.5,63.0,30.07,WNW,293,10.4,10.4,72,0.00,CLR,SKC,0.00,WeatherDisplay:10.37,2016-07-24 10:09:00,
2016-07-24 12:14:00,72.4,62.9,30.07,NNW,330,11.0,11.0,72,0.00,CLR,SKC,0.00,WeatherDisplay:10.37,2016-07-24 10:14:00,
2016-07-24 12:19:00,72.3,63.5,30.07,NW,314,9.0,9.0,74,0.00,CLR,SKC,0.00,WeatherDisplay:10.37,2016-07-24 10:19:00,
2016-07-24 12:24:00,72.8,63.2,30.07,North,354,11.5,11.5,72,0.00,CLR,SKC,0.00,WeatherDisplay:10.37,2016-07-24 10:24:00,
2016-07-24 12:29:00,72.8,64.0,30.07,North,357,10.4,10.4,74,0.00,CLR,SKC,0.00,WeatherDisplay:10.37,2016-07-24 10:29:00,
2016-07-24 12:34:00,73.3,64.1,30.07,NW,311,10.0,10.0,73,0.00,CLR,SKC,0.00,WeatherDisplay:10.37,2016-07-24 10:34:00,
2016-07-24 12:39:00,74.0,64.4,30.07,NNW,327,6.9,6.9,72,0.00,CLR,SKC,0.00,WeatherDisplay:10.37,2016-07-24 10:39:00,
2016-07-24 12:44:00,74.4,64.4,30.07,NNW,335,10.4,10.4,71,0.00,CLR,SKC,0.00,WeatherDisplay:10.37,2016-07-24 10:44:00,
2016-07-24 12:49:00,74.5,64.1,30.07,NNW,345,11.0,11.0,70,0.00,CLR,SKC,0.00,WeatherDisplay:10.37,2016-07-24 10:49:00,
2016-07-24 12:54:00,74.7,63.0,30.07,NNE,20,11.5,11.5,67,0.00,CLR,SKC,0.00,WeatherDisplay:10.37,2016-07-24 10:54:00,
2016-07-24 12:59:00,74.9,63.6,30.07,NNW,338,12.7,12.7,68,0.00,CLR,SKC,0.00,WeatherDisplay:10.37,2016-07-24 10:59:00,
2016-07-24 13:05:00,75.1,63.8,30.07,NW,314,11.5,11.5,68,0.00,CLR,SKC,0.00,WeatherDisplay:10.37,2016-07-24 11:05:00,
2016-07-24 13:10:00,74.6,65.0,30.07,West,261,11.5,11.5,72,0.00,CLR,SKC,0.00,WeatherDisplay:10.37,2016-07-24 11:10:00,
2016-07-24 13:20:00,74.7,64.7,30.07,NW,320,8.0,13.0,71,0.00,CLR,SKC,0.00,WeatherDisplay:10.37,2016-07-24 11:20:00,
2016-07-24 13:25:00,74.8,64.4,30.07,WNW,290,8.1,9.6,70,0.00,CLR,SKC,0.00,WeatherDisplay:10.37,2016-07-24 11:25:00,
2016-07-24 13:30:00,75.2,64.7,30.07,NNW,342,10.4,10.4,70,0.00,CLR,SKC,0.00,WeatherDisplay:10.37,2016-07-24 11:30:00,
2016-07-24 13:35:00,75.1,64.6,30.07,NW,305,11.5,11.5,70,0.00,CLR,SKC,0.00,WeatherDisplay:10.37,2016-07-24 11:35:00,
2016-07-24 13:40:00,75.3,65.2,30.07,WNW,291,10.0,10.0,71,0.00,CLR,SKC,0.00,WeatherDisplay:10.37,2016-07-24 11:40:00,
2016-07-24 13:45:00,75.8,64.9,30.07,NW,318,6.0,12.0,69,0.00,CLR,SKC,0.00,WeatherDisplay:10.37,2016-07-24 11:45:00,
2016-07-24 13:50:00,75.8,65.3,30.07,NW,310,9.0,12.0,70,0.00,CLR,SKC,0.00,WeatherDisplay:10.37,2016-07-24 11:50:00,
2016-07-24 13:55:00,75.5,64.6,30.07,NNW,339,6.9,6.9,69,0.00,CLR,SKC,0.00,WeatherDisplay:10.37,2016-07-24 11:55:00,
2016-07-24 14:00:00,75.6,64.3,30.07,NW,309,9.0,12.0,68,0.00,CLR,SKC,0.00,WeatherDisplay:10.37,2016-07-24 12:00:00,
2016-07-24 14:05:00,76.1,65.2,30.07,WNW,292,11.5,11.5,69,0.00,CLR,SKC,0.00,WeatherDisplay:10.37,2016-07-24 12:05:00,
2016-07-24 14:10:00,76.3,65.0,30.07,WNW,285,11.5,11.5,68,0.00,CLR,SKC,0.00,WeatherDisplay:10.37,2016-07-24 12:10:00,
2016-07-24 14:15:00,76.0,65.1,30.06,WNW,298,3.0,13.0,69,0.00,CLR,SKC,0.00,WeatherDisplay:10.37,2016-07-24 12:15:00,
2016-07-24 14:20:00,76.4,65.1,30.06,NNW,343,10.4,10.4,68,0.00,CLR,SKC,0.00,WeatherDisplay:10.37,2016-07-24 12:20:00,
2016-07-24 14:25:00,76.6,65.2,30.06,NW,308,10.4,10.4,68,0.00,CLR,SKC,0.00,WeatherDisplay:10.37,2016-07-24 12:25:00,
2016-07-24 14:30:00,77.0,64.8,30.06,NW,311,3.0,9.0,66,0.00,CLR,SKC,0.00,WeatherDisplay:10.37,2016-07-24 12:30:00,
2016-07-24 14:35:00,77.4,64.7,30.06,NW,321,11.5,11.5,65,0.00,CLR,SKC,0.00,WeatherDisplay:10.37,2016-07-24 12:35:00,
2016-07-24 14:40:00,77.7,64.6,30.06,NW,312,5.0,9.0,64,0.00,CLR,SKC,0.00,WeatherDisplay:10.37,2016-07-24 12:40:00,
2016-07-24 14:45:00,78.0,64.8,30.06,NW,313,6.0,12.0,64,0.00,CLR,SKC,0.00,WeatherDisplay:10.37,2016-07-24 12:45:00,
2016-07-24 14:50:00,78.2,64.1,30.05,NW,325,8.1,8.1,62,0.00,CLR,SKC,0.00,WeatherDisplay:10.37,2016-07-24 12:50:00,
2016-07-24 14:55:00,77.8,64.2,30.05,NW,312,5.0,10.0,63,0.00,CLR,SKC,0.00,WeatherDisplay:10.37,2016-07-24 12:55:00,
2016-07-24 15:00:00,78.3,64.2,30.05,NNW,327,7.0,10.0,62,0.00,CLR,SKC,0.00,WeatherDisplay:10.37,2016-07-24 13:00:00,
2016-07-24 15:05:00,78.6,64.5,30.05,NNW,330,6.0,9.0,62,0.00,CLR,SKC,0.00,WeatherDisplay:10.37,2016-07-24 13:05:00,
2016-07-24 15:10:00,78.8,64.2,30.05,NNW,334,6.0,8.0,61,0.00,CLR,SKC,0.00,WeatherDisplay:10.37,2016-07-24 13:10:00,
2016-07-24 15:15:00,78.4,64.8,30.05,NW,322,8.1,8.1,63,0.00,CLR,SKC,0.00,WeatherDisplay:10.37,2016-07-24 13:15:00,
2016-07-24 15:20:00,78.7,64.6,30.05,NNW,329,8.1,8.1,62,0.00,CLR,SKC,0.00,WeatherDisplay:10.37,2016-07-24 13:20:00,
2016-07-24 15:25:00,79.3,64.7,30.04,NNW,346,8.0,12.0,61,0.00,CLR,SKC,0.00,WeatherDisplay:10.37,2016-07-24 13:25:00,
2016-07-24 15:30:00,78.9,64.8,30.05,NW,314,12.7,12.7,62,0.00,CLR,SKC,0.00,WeatherDisplay:10.37,2016-07-24 13:30:00,
2016-07-24 15:35:00,79.3,65.1,30.04,NW,316,9.2,9.2,62,0.00,CLR,SKC,0.00,WeatherDisplay:10.37,2016-07-24 13:35:00,
2016-07-24 15:40:00,79.1,64.9,30.04,NW,316,8.0,13.0,62,0.00,CLR,SKC,0.00,WeatherDisplay:10.37,2016-07-24 13:40:00,
2016-07-24 15:45:00,79.1,65.4,30.04,NW,304,13.0,13.0,63,0.00,CLR,SKC,0.00,WeatherDisplay:10.37,2016-07-24 13:45:00,
2016-07-24 15:50:00,79.2,65.1,30.04,WNW,288,8.1,8.1,62,0.00,CLR,SKC,0.00,WeatherDisplay:10.37,2016-07-24 13:50:00,
2016-07-24 15:55:00,79.6,64.5,30.04,WNW,300,9.0,14.0,60,0.00,CLR,SKC,0.00,WeatherDisplay:10.37,2016-07-24 13:55:00,
2016-07-24 16:00:00,79.6,64.0,30.04,NNW,327,11.5,11.5,59,0.00,CLR,SKC,0.00,WeatherDisplay:10.37,2016-07-24 14:00:00,
2016-07-24 16:10:00,79.5,65.3,30.04,NW,308,9.0,9.1,62,0.00,CLR,SKC,0.00,WeatherDisplay:10.37,2016-07-24 14:10:00,
2016-07-24 16:15:00,79.5,65.3,30.04,NW,310,7.0,14.0,62,0.00,CLR,SKC,0.00,WeatherDisplay:10.37,2016-07-24 14:15:00,
2016-07-24 16:20:00,79.5,65.8,30.03,NW,305,6.0,12.0,63,0.00,CLR,SKC,0.00,WeatherDisplay:10.37,2016-07-24 14:20:00,
2016-07-24 16:25:00,79.6,65.0,30.03,North,359,6.9,6.9,61,0.00,CLR,SKC,0.00,WeatherDisplay:10.37,2016-07-24 14:25:00,
2016-07-24 16:30:00,80.0,65.3,30.03,WNW,298,7.0,12.0,61,0.00,CLR,SKC,0.00,WeatherDisplay:10.37,2016-07-24 14:30:00,
2016-07-24 16:35:00,80.1,65.4,30.03,WNW,288,6.0,12.0,61,0.00,CLR,SKC,0.00,WeatherDisplay:10.37,2016-07-24 14:35:00,
2016-07-24 16:40:00,80.0,65.3,30.03,NW,305,11.5,11.5,61,0.00,CLR,SKC,0.00,WeatherDisplay:10.37,2016-07-24 14:40:00,
2016-07-24 16:45:00,79.8,65.6,30.03,WNW,288,6.0,9.0,62,0.00,CLR,SKC,0.00,WeatherDisplay:10.37,2016-07-24 14:45:00,
2016-07-24 16:50:00,80.3,66.1,30.03,WNW,295,6.0,12.0,62,0.00,CLR,SKC,0.00,WeatherDisplay:10.37,2016-07-24 14:50:00,
2016-07-24 16:55:00,80.0,65.8,30.03,West,269,9.2,9.2,62,0.00,CLR,SKC,0.00,WeatherDisplay:10.37,2016-07-24 14:55:00,
2016-07-24 17:00:00,80.3,65.2,30.02,WNW,300,9.0,16.0,60,0.00,CLR,SKC,0.00,WeatherDisplay:10.37,2016-07-24 15:00:00,
2016-07-24 17:05:00,79.9,65.7,30.02,NNE,23,11.5,11.5,62,0.00,CLR,SKC,0.00,WeatherDisplay:10.37,2016-07-24 15:05:00,
2016-07-24 17:10:00,79.7,65.1,30.02,NW,311,9.2,9.2,61,0.00,CLR,SKC,0.00,WeatherDisplay:10.37,2016-07-24 15:10:00,
2016-07-24 17:15:00,79.9,65.3,30.02,WNW,294,8.0,14.0,61,0.00,CLR,SKC,0.00,WeatherDisplay:10.37,2016-07-24 15:15:00,
2016-07-24 17:20:00,79.8,65.2,30.02,WNW,295,10.4,10.4,61,0.00,CLR,SKC,0.00,WeatherDisplay:10.37,2016-07-24 15:20:00,
2016-07-24 17:25:00,79.5,65.3,30.02,NW,307,11.5,11.5,62,0.00,CLR,SKC,0.00,WeatherDisplay:10.37,2016-07-24 15:25:00,
2016-07-24 17:30:00,80.2,65.1,30.02,WNW,301,7.0,12.0,60,0.00,CLR,SKC,0.00,WeatherDisplay:10.37,2016-07-24 15:30:00,
2016-07-24 17:35:00,80.8,66.1,30.01,WNW,283,3.5,3.5,61,0.00,CLR,SKC,0.00,WeatherDisplay:10.37,2016-07-24 15:35:00,
2016-07-24 17:40:00,80.8,65.1,30.02,WNW,293,9.0,12.0,59,0.00,CLR,SKC,0.00,WeatherDisplay:10.37,2016-07-24 15:40:00,
2016-07-24 17:45:00,80.2,65.5,30.01,NW,311,6.0,12.0,61,0.00,CLR,SKC,0.00,WeatherDisplay:10.37,2016-07-24 15:45:00,
2016-07-24 17:50:00,80.1,65.0,30.01,NW,316,8.1,8.1,60,0.00,CLR,SKC,0.00,WeatherDisplay:10.37,2016-07-24 15:50:00,
2016-07-24 17:55:00,79.8,64.7,30.01,NW,308,3.0,8.0,60,0.00,CLR,SKC,0.00,WeatherDisplay:10.37,2016-07-24 15:55:00,
2016-07-24 18:00:00,79.8,64.7,30.01,NW,307,6.0,9.0,60,0.00,CLR,SKC,0.00,WeatherDisplay:10.37,2016-07-24 16:00:00,
2016-07-24 18:05:00,79.6,64.0,30.01,WNW,301,9.2,9.2,59,0.00,CLR,SKC,0.00,WeatherDisplay:10.37,2016-07-24 16:05:00,
2016-07-24 18:10:00,80.0,63.9,30.02,WNW,296,6.0,10.0,58,0.00,CLR,SKC,0.00,WeatherDisplay:10.37,2016-07-24 16:10:00,
2016-07-24 18:15:00,80.3,64.2,30.01,NW,307,6.0,6.0,58,0.00,CLR,SKC,0.00,WeatherDisplay:10.37,2016-07-24 16:15:00,
2016-07-24 18:20:00,80.8,64.6,30.02,WNW,293,8.1,8.1,58,0.00,CLR,SKC,0.00,WeatherDisplay:10.37,2016-07-24 16:20:00,
2016-07-24 18:25:00,80.4,64.8,30.01,West,280,1.0,10.0,59,0.00,CLR,SKC,0.00,WeatherDisplay:10.37,2016-07-24 16:25:00,
2016-07-24 18:30:00,80.1,65.0,30.01,SSW,210,8.1,8.1,60,0.00,CLR,SKC,0.00,WeatherDisplay:10.37,2016-07-24 16:30:00,
2016-07-24 18:35:00,79.9,65.2,30.01,WNW,287,8.0,8.0,61,0.00,CLR,SKC,0.00,WeatherDisplay:10.37,2016-07-24 16:35:00,
2016-07-24 18:40:00,79.9,64.8,30.01,West,265,5.0,8.0,60,0.00,CLR,SKC,0.00,WeatherDisplay:10.37,2016-07-24 16:40:00,
2016-07-24 18:45:00,79.9,65.2,30.01,WNW,298,8.1,8.1,61,0.00,CLR,SKC,0.00,WeatherDisplay:10.37,2016-07-24 16:45:00,
2016-07-24 18:50:00,80.6,65.4,30.01,West,273,6.0,8.0,60,0.00,CLR,SKC,0.00,WeatherDisplay:10.37,2016-07-24 16:50:00,
2016-07-24 18:55:00,79.8,65.6,30.01,NW,321,3.0,9.0,62,0.00,CLR,SKC,0.00,WeatherDisplay:10.37,2016-07-24 16:55:00,
2016-07-24 19:00:00,79.1,65.4,30.01,ENE,63,11.5,11.5,63,0.00,CLR,SKC,0.00,WeatherDisplay:10.37,2016-07-24 17:00:00,
2016-07-24 19:05:00,78.4,65.2,30.01,NE,41,6.9,6.9,64,0.00,CLR,SKC,0.00,WeatherDisplay:10.37,2016-07-24 17:05:00,
2016-07-24 19:10:00,78.5,64.9,30.02,North,11,5.8,5.8,63,0.00,CLR,SKC,0.00,WeatherDisplay:10.37,2016-07-24 17:10:00,
2016-07-24 19:15:00,78.2,65.9,30.02,ESE,113,11.5,11.5,66,0.00,CLR,SKC,0.00,WeatherDisplay:10.37,2016-07-24 17:15:00,
2016-07-24 19:20:00,77.8,65.5,30.02,NE,35,3.0,14.0,66,0.00,CLR,SKC,0.00,WeatherDisplay:10.37,2016-07-24 17:20:00,
2016-07-24 19:25:00,77.3,64.6,30.02,NE,52,9.2,9.2,65,0.00,CLR,SKC,0.00,WeatherDisplay:10.37,2016-07-24 17:25:00,
2016-07-24 19:30:00,77.0,64.8,30.02,NNE,32,9.2,9.2,66,0.00,CLR,SKC,0.00,WeatherDisplay:10.37,2016-07-24 17:30:00,
2016-07-24 19:35:00,76.7,64.9,30.02,ENE,66,2.0,9.0,67,0.00,CLR,SKC,0.00,WeatherDisplay:10.37,2016-07-24 17:35:00,
2016-07-24 19:40:00,77.0,65.2,30.03,ENE,67,0.0,0.0,67,0.00,CLR,SKC,0.00,WeatherDisplay:10.37,2016-07-24 17:40:00,
2016-07-24 19:45:00,77.2,65.0,30.03,SW,224,5.0,5.0,66,0.00,CLR,SKC,0.00,WeatherDisplay:10.37,2016-07-24 17:45:00,
2016-07-24 19:50:00,76.7,65.0,30.03,SE,130,7.0,9.0,67,0.00,CLR,SKC,0.00,WeatherDisplay:10.37,2016-07-24 17:50:00,
2016-07-24 19:55:00,76.5,65.1,30.03,SE,146,4.6,4.6,68,0.00,CLR,SKC,0.00,WeatherDisplay:10.37,2016-07-24 17:55:00,
2016-07-24 20:00:00,76.8,65.5,30.03,SSE,157,1.0,4.0,68,0.00,CLR,SKC,0.00,WeatherDisplay:10.37,2016-07-24 18:00:00,
2016-07-24 20:05:00,76.9,65.5,30.03,ESE,122,5.0,5.0,68,0.00,CLR,SKC,0.00,WeatherDisplay:10.37,2016-07-24 18:05:00,
2016-07-24 20:10:00,76.1,65.6,30.03,WSW,240,9.2,9.2,70,0.00,CLR,SKC,0.00,WeatherDisplay:10.37,2016-07-24 18:10:00,
2016-07-24 20:15:00,76.1,65.2,30.03,SW,236,1.1,1.7,69,0.00,CLR,SKC,0.00,WeatherDisplay:10.37,2016-07-24 18:15:00,
2016-07-24 20:20:00,76.0,65.9,30.03,SW,217,5.8,5.8,71,0.00,CLR,SKC,0.00,WeatherDisplay:10.37,2016-07-24 18:20:00,
2016-07-24 20:25:00,75.9,65.8,30.04,SW,236,8.0,8.0,71,0.00,CLR,SKC,0.00,WeatherDisplay:10.37,2016-07-24 18:25:00,
2016-07-24 20:30:00,75.1,65.8,30.04,South,189,6.0,12.0,73,0.00,CLR,SKC,0.00,WeatherDisplay:10.37,2016-07-24 18:30:00,
2016-07-24 20:35:00,75.0,65.8,30.05,South,172,0.0,5.0,73,0.00,CLR,SKC,0.00,WeatherDisplay:10.37,2016-07-24 18:35:00,
2016-07-24 20:40:00,75.1,65.9,30.05,SSE,165,3.5,3.5,73,0.00,CLR,SKC,0.00,WeatherDisplay:10.37,2016-07-24 18:40:00,
2016-07-24 20:45:00,75.1,65.5,30.05,SSW,198,0.0,4.0,72,0.00,CLR,SKC,0.00,WeatherDisplay:10.37,2016-07-24 18:45:00,
2016-07-24 20:55:00,75.1,65.4,30.05,SSW,200,2.0,4.0,72,0.00,CLR,SKC,0.00,WeatherDisplay:10.37,2016-07-24 18:55:00,
2016-07-24 21:00:00,75.1,66.2,30.05,SSW,199,0.0,4.0,74,0.00,CLR,SKC,0.00,WeatherDisplay:10.37,2016-07-24 19:00:00,
2016-07-24 21:05:00,74.7,66.6,30.05,WSW,239,5.0,5.0,76,0.00,CLR,SKC,0.00,WeatherDisplay:10.37,2016-07-24 19:05:00,
2016-07-24 21:10:00,74.2,66.1,30.05,SW,225,5.0,6.0,76,0.00,CLR,SKC,0.00,WeatherDisplay:10.37,2016-07-24 19:10:00,
2016-07-24 21:15:00,73.6,66.7,30.06,South,179,6.0,6.0,79,0.00,CLR,SKC,0.00,WeatherDisplay:10.37,2016-07-24 19:15:00,
2016-07-24 21:25:00,72.8,67.0,30.07,SW,236,2.0,4.0,82,0.00,CLR,SKC,0.00,WeatherDisplay:10.37,2016-07-24 19:25:00,
2016-07-24 21:30:00,72.4,67.0,30.06,NNE,13,2.0,6.0,83,0.00,CLR,SKC,0.00,WeatherDisplay:10.37,2016-07-24 19:30:00,
2016-07-24 21:35:00,72.2,66.7,30.07,NE,38,1.0,2.0,83,0.00,CLR,SKC,0.00,WeatherDisplay:10.37,2016-07-24 19:35:00,
2016-07-24 21:40:00,72.1,67.0,30.07,North,2,3.0,7.0,84,0.00,CLR,SKC,0.00,WeatherDisplay:10.37,2016-07-24 19:40:00,
2016-07-24 21:45:00,71.6,66.8,30.08,NNW,342,0.0,0.4,85,0.00,CLR,SKC,0.00,WeatherDisplay:10.37,2016-07-24 19:45:00,
2016-07-24 21:50:00,71.4,66.3,30.07,North,8,1.0,4.0,84,0.00,CLR,SKC,0.00,WeatherDisplay:10.37,2016-07-24 19:50:00,
2016-07-24 21:55:00,71.2,66.1,30.08,NNE,21,0.0,2.0,84,0.00,CLR,SKC,0.00,WeatherDisplay:10.37,2016-07-24 19:55:00,
2016-07-24 22:00:00,71.1,66.4,30.08,NNW,347,0.0,0.0,85,0.00,CLR,SKC,0.00,WeatherDisplay:10.37,2016-07-24 20:00:00,